Time;durP1;ratioP1;P1;durP2;ratioP2;P2;SDS_P1;SDS_P2;PMS_P1;PMS_P2;Temp;Humidity;BMP_temperature;BMP_pressure;BME280_temperature;BME280_humidity;BME280_pressure;Samples;Min_cycle;Max_cycle;Signal;HPM_P1;HPM_P2
2021/05/19 00:02:11;;;;;;;17.27;6.55;;;;;;;;;;5053596;28;20024;-54
2021/05/19 00:04:37;;;;;;;8.40;4.97;;;;;;;;;;5053742;28;20379;-56
2021/05/19 00:07:03;;;;;;;10.52;6.20;;;;;;;;;;5053534;28;20017;-56
2021/05/19 00:09:29;;;;;;;14.88;6.38;;;;;;;;;;5053670;28;20036;-55
2021/05/19 00:11:56;;;;;;;14.50;6.20;;;;;;;;;;5053477;28;20029;-55
2021/05/19 00:14:22;;;;;;;24.02;11.68;;;;;;;;;;5053445;28;20029;-55
2021/05/19 00:16:49;;;;;;;13.73;6.45;;;;;;;;;;5035475;28;20033;-55
2021/05/19 00:19:15;;;;;;;14.48;6.88;;;;;;;;;;5053644;28;20025;-55
2021/05/19 00:21:41;;;;;;;18.75;7.15;;;;;;;;;;5053210;28;20059;-55
2021/05/19 00:24:09;;;;;;;16.05;7.47;;;;;;;;;;5053552;28;20539;-55
2021/05/19 00:26:35;;;;;;;18.17;8.65;;;;;;;;;;5053384;28;20032;-55
2021/05/19 00:29:01;;;;;;;16.30;8.10;;;;;;;;;;5053309;28;20021;-55
2021/05/19 00:31:32;;;;;;;18.17;8.60;;;;;;;;;;5053239;28;20029;-55
2021/05/19 00:33:58;;;;;;;24.10;10.73;;;;;;;;;;5053327;28;20408;-55
2021/05/19 00:36:24;;;;;;;19.83;8.20;;;;;;;;;;5053276;28;20024;-55
2021/05/19 00:38:52;;;;;;;22.08;9.52;;;;;;;;;;5053338;28;20076;-55
2021/05/19 00:41:19;;;;;;;20.70;11.35;;;;;;;;;;5053273;28;20017;-55
2021/05/19 00:43:45;;;;;;;21.45;11.82;;;;;;;;;;5052997;28;20029;-55
2021/05/19 00:46:11;;;;;;;17.08;8.98;;;;;;;;;;5053055;28;20021;-55
2021/05/19 00:48:40;;;;;;;26.20;13.77;;;;;;;;;;5054452;28;20082;-55
2021/05/19 00:51:06;;;;;;;29.80;17.85;;;;;;;;;;5057024;28;20420;-55
2021/05/19 00:53:33;;;;;;;30.63;16.90;;;;;;;;;;5057389;28;20369;-55
2021/05/19 00:55:59;;;;;;;39.95;23.17;;;;;;;;;;5057151;28;20032;-55
2021/05/19 00:58:25;;;;;;;32.70;16.27;;;;;;;;;;5057058;28;20496;-55
2021/05/19 01:00:51;;;;;;;18.65;9.63;;;;;;;;;;5057104;28;20109;-56
2021/05/19 01:03:17;;;;;;;19.20;11.10;;;;;;;;;;5057086;28;20397;-56
2021/05/19 01:05:53;;;;;;;19.38;10.02;;;;;;;;;;5057152;28;20028;-55
2021/05/19 01:11:06;;;;;;;19.23;8.00;;;;;;;;;;5057170;28;20448;-56
2021/05/19 01:13:33;;;;;;;11.77;6.90;;;;;;;;;;5056942;28;20128;-56
2021/05/19 01:16:00;;;;;;;17.10;7.75;;;;;;;;;;5056989;28;20075;-55
2021/05/19 01:18:26;;;;;;;17.75;7.65;;;;;;;;;;5056630;28;20021;-56
2021/05/19 01:20:54;;;;;;;14.35;6.80;;;;;;;;;;5056771;28;20452;-55
2021/05/19 01:23:20;;;;;;;17.38;8.48;;;;;;;;;;5056753;28;20029;-56
2021/05/19 01:25:47;;;;;;;16.33;7.57;;;;;;;;;;5056456;28;20366;-54
2021/05/19 01:28:13;;;;;;;15.05;6.70;;;;;;;;;;5056829;28;20087;-57
2021/05/19 01:30:39;;;;;;;11.02;6.93;;;;;;;;;;5056604;28;20167;-56
2021/05/19 01:33:05;;;;;;;14.23;7.25;;;;;;;;;;5056536;28;20033;-57
2021/05/19 01:35:31;;;;;;;17.38;7.45;;;;;;;;;;5056461;28;20017;-56
2021/05/19 01:37:57;;;;;;;13.45;6.75;;;;;;;;;;5056491;28;20369;-57
2021/05/19 01:40:27;;;;;;;12.18;6.57;;;;;;;;;;5056337;28;20025;-56
2021/05/19 01:42:54;;;;;;;13.70;4.97;;;;;;;;;;5056365;28;20021;-56
2021/05/19 01:45:23;;;;;;;14.88;5.97;;;;;;;;;;5056363;28;20025;-56
2021/05/19 01:47:50;;;;;;;12.65;5.82;;;;;;;;;;5056185;28;20115;-56
2021/05/19 01:50:18;;;;;;;17.05;5.78;;;;;;;;;;5055831;28;20480;-56
2021/05/19 01:52:44;;;;;;;16.25;7.30;;;;;;;;;;5056052;28;20059;-55
2021/05/19 01:55:12;;;;;;;18.38;7.13;;;;;;;;;;5056014;28;20029;-55
2021/05/19 01:57:40;;;;;;;16.80;6.70;;;;;;;;;;5038120;28;20373;-55
2021/05/19 02:00:08;;;;;;;13.70;6.55;;;;;;;;;;5054566;28;20036;-55
2021/05/19 02:02:34;;;;;;;9.45;5.57;;;;;;;;;;5055871;28;20358;-56
2021/05/19 02:05:01;;;;;;;11.00;4.63;;;;;;;;;;5055836;28;20032;-56
2021/05/19 02:07:27;;;;;;;9.50;5.18;;;;;;;;;;5055965;28;20029;-56
2021/05/19 02:09:53;;;;;;;11.65;5.70;;;;;;;;;;5055703;28;20036;-57
2021/05/19 02:12:19;;;;;;;10.00;5.97;;;;;;;;;;5055858;28;20426;-55
2021/05/19 02:14:45;;;;;;;8.95;5.63;;;;;;;;;;5055870;28;20079;-57
2021/05/19 02:17:11;;;;;;;10.00;6.25;;;;;;;;;;5055772;28;20147;-56
2021/05/19 02:19:39;;;;;;;9.98;5.35;;;;;;;;;;5055614;28;20029;-56
2021/05/19 02:22:05;;;;;;;9.18;5.55;;;;;;;;;;5055498;28;20111;-55
2021/05/19 02:24:32;;;;;;;6.85;4.30;;;;;;;;;;5055407;28;20033;-56
2021/05/19 02:26:58;;;;;;;9.70;4.65;;;;;;;;;;5055662;28;20056;-56
2021/05/19 02:29:24;;;;;;;7.57;4.82;;;;;;;;;;5055458;28;20473;-55
2021/05/19 02:31:50;;;;;;;8.00;5.00;;;;;;;;;;5055440;28;20091;-56
2021/05/19 02:34:16;;;;;;;9.93;5.40;;;;;;;;;;5055307;28;20188;-56
2021/05/19 02:36:42;;;;;;;8.45;4.80;;;;;;;;;;5055590;28;20060;-55
2021/05/19 02:39:10;;;;;;;8.77;4.93;;;;;;;;;;5055277;28;20472;-55
2021/05/19 02:41:37;;;;;;;10.90;4.72;;;;;;;;;;5055211;28;20075;-55
2021/05/19 02:44:04;;;;;;;7.72;5.10;;;;;;;;;;5055546;28;20083;-56
2021/05/19 02:46:30;;;;;;;9.00;5.20;;;;;;;;;;5055469;28;20025;-55
2021/05/19 02:49:01;;;;;;;9.38;5.40;;;;;;;;;;5055674;28;20067;-57
2021/05/19 02:51:31;;;;;;;6.60;4.40;;;;;;;;;;5055144;28;20037;-54
2021/05/19 02:53:58;;;;;;;6.55;4.85;;;;;;;;;;5054970;28;20052;-56
2021/05/19 02:56:24;;;;;;;10.55;5.40;;;;;;;;;;5055410;28;20041;-56
2021/05/19 02:58:52;;;;;;;9.30;5.40;;;;;;;;;;5036957;28;20389;-56
2021/05/19 03:01:18;;;;;;;9.00;5.60;;;;;;;;;;5055097;28;20150;-56
2021/05/19 03:03:45;;;;;;;10.25;6.30;;;;;;;;;;5054988;28;20032;-56
2021/05/19 03:06:11;;;;;;;10.88;6.30;;;;;;;;;;5054817;28;20469;-54
2021/05/19 03:08:37;;;;;;;15.05;5.75;;;;;;;;;;5054684;28;20071;-56
2021/05/19 03:11:04;;;;;;;14.75;6.57;;;;;;;;;;5054487;28;20499;-56
2021/05/19 03:13:31;;;;;;;11.50;5.53;;;;;;;;;;5054787;28;20033;-55
2021/05/19 03:15:57;;;;;;;9.10;4.55;;;;;;;;;;5054634;28;20104;-56
2021/05/19 03:18:23;;;;;;;10.30;4.78;;;;;;;;;;5054496;28;20033;-55
2021/05/19 03:20:49;;;;;;;14.18;5.80;;;;;;;;;;5054384;28;20593;-55
2021/05/19 03:23:15;;;;;;;12.10;4.93;;;;;;;;;;5054490;28;20033;-56
2021/05/19 03:25:42;;;;;;;13.02;5.80;;;;;;;;;;5054271;28;20108;-56
2021/05/19 03:28:08;;;;;;;16.98;7.10;;;;;;;;;;5054484;28;20486;-56
2021/05/19 03:30:34;;;;;;;18.40;7.93;;;;;;;;;;5054247;28;20025;-55
2021/05/19 03:33:00;;;;;;;19.95;10.73;;;;;;;;;;5054066;28;20485;-56
2021/05/19 03:35:29;;;;;;;20.30;10.70;;;;;;;;;;5054455;28;20098;-56
2021/05/19 03:37:55;;;;;;;18.13;10.05;;;;;;;;;;5054305;28;20020;-56
2021/05/19 03:40:22;;;;;;;21.48;10.25;;;;;;;;;;5054072;28;20078;-56
2021/05/19 03:42:48;;;;;;;18.23;9.55;;;;;;;;;;5054049;28;20025;-56
2021/05/19 03:45:17;;;;;;;21.80;9.68;;;;;;;;;;5054171;28;20025;-56
2021/05/19 03:47:45;;;;;;;18.90;9.52;;;;;;;;;;5053907;28;20033;-56
2021/05/19 03:50:12;;;;;;;15.40;9.32;;;;;;;;;;5053580;28;20385;-56
2021/05/19 03:52:38;;;;;;;18.10;9.00;;;;;;;;;;5053739;28;20037;-55
2021/05/19 03:55:05;;;;;;;17.60;9.90;;;;;;;;;;5053686;28;20161;-56
2021/05/19 03:57:31;;;;;;;20.27;9.77;;;;;;;;;;5053924;28;20025;-56
2021/05/19 03:59:57;;;;;;;31.83;9.80;;;;;;;;;;5054029;28;20104;-56
2021/05/19 04:02:23;;;;;;;25.95;8.90;;;;;;;;;;5053638;28;20508;-55
2021/05/19 04:04:49;;;;;;;19.45;9.05;;;;;;;;;;5053875;28;20029;-55
2021/05/19 04:07:16;;;;;;;23.70;9.35;;;;;;;;;;5053674;28;20017;-56
2021/05/19 04:09:42;;;;;;;16.98;7.28;;;;;;;;;;5053682;28;20484;-56
2021/05/19 04:12:08;;;;;;;13.75;7.28;;;;;;;;;;5053652;28;20032;-56
2021/05/19 04:14:34;;;;;;;17.33;7.68;;;;;;;;;;5053586;28;20029;-56
2021/05/19 04:17:00;;;;;;;18.33;8.50;;;;;;;;;;5053497;28;20368;-56
2021/05/19 04:19:27;;;;;;;29.25;8.05;;;;;;;;;;5053552;28;20028;-56
2021/05/19 04:21:56;;;;;;;18.05;9.52;;;;;;;;;;5053287;28;20469;-56
2021/05/19 04:24:23;;;;;;;17.55;8.77;;;;;;;;;;5052580;28;20021;-56
2021/05/19 04:26:49;;;;;;;21.38;9.02;;;;;;;;;;5053623;28;20053;-56
2021/05/19 04:29:15;;;;;;;23.63;11.35;;;;;;;;;;5053275;28;20025;-55
2021/05/19 04:31:41;;;;;;;28.00;15.25;;;;;;;;;;5052947;28;20500;-56
2021/05/19 04:34:07;;;;;;;24.15;11.85;;;;;;;;;;5053121;28;20033;-56
2021/05/19 04:36:33;;;;;;;16.48;9.05;;;;;;;;;;5053188;28;20029;-57
2021/05/19 04:39:01;;;;;;;19.60;11.10;;;;;;;;;;5053160;28;20021;-57
2021/05/19 04:41:27;;;;;;;10.90;6.22;;;;;;;;;;5053204;28;20017;-56
2021/05/19 04:43:54;;;;;;;8.85;4.78;;;;;;;;;;5053260;28;20384;-56
2021/05/19 04:46:20;;;;;;;8.98;3.88;;;;;;;;;;5035237;28;20426;-56
2021/05/19 04:48:46;;;;;;;9.77;5.85;;;;;;;;;;5053046;28;20025;-56
2021/05/19 04:51:12;;;;;;;8.93;5.60;;;;;;;;;;5052954;28;20052;-58
2021/05/19 04:53:38;;;;;;;12.32;5.50;;;;;;;;;;5052894;28;20033;-56
2021/05/19 04:56:04;;;;;;;10.98;7.18;;;;;;;;;;5053165;28;20025;-54
2021/05/19 04:58:30;;;;;;;8.77;4.95;;;;;;;;;;5053063;28;20052;-54
2021/05/19 05:00:57;;;;;;;5.80;3.30;;;;;;;;;;5052820;28;20067;-55
2021/05/19 05:03:23;;;;;;;7.43;4.80;;;;;;;;;;5034894;28;20041;-54
2021/05/19 05:05:53;;;;;;;8.35;4.03;;;;;;;;;;5053006;28;20029;-58
2021/05/19 05:08:19;;;;;;;4.45;3.13;;;;;;;;;;5052936;28;20028;-57
2021/05/19 05:10:46;;;;;;;6.85;3.90;;;;;;;;;;5053092;28;20017;-57
2021/05/19 05:13:12;;;;;;;4.60;3.50;;;;;;;;;;5052626;28;20036;-57
2021/05/19 05:15:38;;;;;;;5.40;3.53;;;;;;;;;;5052730;28;20029;-58
2021/05/19 05:18:04;;;;;;;7.60;4.50;;;;;;;;;;5052790;28;20025;-57
2021/05/19 05:20:30;;;;;;;10.82;6.13;;;;;;;;;;5052596;28;20029;-57
2021/05/19 05:22:56;;;;;;;12.07;6.82;;;;;;;;;;5052715;28;20032;-56
2021/05/19 05:25:22;;;;;;;13.90;7.30;;;;;;;;;;5052553;28;20036;-57
2021/05/19 05:27:49;;;;;;;14.77;7.70;;;;;;;;;;5052538;28;20025;-56
2021/05/19 05:30:18;;;;;;;5.22;3.85;;;;;;;;;;5052790;28;20025;-57
2021/05/19 05:32:45;;;;;;;6.53;4.00;;;;;;;;;;5052634;28;20051;-57
2021/05/19 05:35:11;;;;;;;10.27;5.43;;;;;;;;;;5054732;28;20032;-58
2021/05/19 05:37:37;;;;;;;5.72;3.70;;;;;;;;;;5056219;28;20381;-57
2021/05/19 05:40:05;;;;;;;9.07;4.53;;;;;;;;;;5056205;28;20365;-56
2021/05/19 05:42:31;;;;;;;9.00;4.32;;;;;;;;;;5056242;28;20461;-56
2021/05/19 05:44:57;;;;;;;8.00;5.18;;;;;;;;;;5056283;28;20029;-55
2021/05/19 05:47:23;;;;;;;7.38;4.90;;;;;;;;;;5056050;28;20120;-55
2021/05/19 05:49:50;;;;;;;9.75;6.32;;;;;;;;;;5056191;28;20036;-56
2021/05/19 05:52:16;;;;;;;5.88;3.42;;;;;;;;;;5055860;28;20186;-59
2021/05/19 05:54:42;;;;;;;6.50;4.18;;;;;;;;;;5055985;28;20078;-59
2021/05/19 05:57:09;;;;;;;5.90;3.97;;;;;;;;;;5056041;28;20032;-57
2021/05/19 05:59:38;;;;;;;7.20;3.70;;;;;;;;;;5055956;28;20021;-58
2021/05/19 06:02:04;;;;;;;5.07;3.63;;;;;;;;;;5055799;28;20465;-58
2021/05/19 06:04:30;;;;;;;9.32;5.00;;;;;;;;;;5055774;28;20071;-58
2021/05/19 06:06:56;;;;;;;9.68;5.43;;;;;;;;;;5055920;28;20021;-58
2021/05/19 06:09:22;;;;;;;8.65;5.28;;;;;;;;;;5055597;28;20025;-57
2021/05/19 06:11:48;;;;;;;14.77;8.98;;;;;;;;;;5055784;28;20075;-59
2021/05/19 06:14:16;;;;;;;5.97;4.57;;;;;;;;;;5055497;28;20073;-57
2021/05/19 06:16:43;;;;;;;7.55;4.90;;;;;;;;;;5038280;28;20500;-57
2021/05/19 06:19:09;;;;;;;12.82;7.97;;;;;;;;;;5055566;28;20479;-57
2021/05/19 06:21:37;;;;;;;8.30;5.15;;;;;;;;;;5055415;28;20039;-57
2021/05/19 06:24:03;;;;;;;11.68;5.72;;;;;;;;;;5055559;28;20075;-56
2021/05/19 06:26:29;;;;;;;10.63;5.90;;;;;;;;;;5055519;28;20044;-56
2021/05/19 06:28:55;;;;;;;8.35;6.03;;;;;;;;;;5055636;28;20120;-58
2021/05/19 06:31:22;;;;;;;10.20;4.00;;;;;;;;;;5055452;28;20025;-58
2021/05/19 06:33:48;;;;;;;9.80;4.60;;;;;;;;;;5055083;28;20037;-57
2021/05/19 06:36:14;;;;;;;10.05;5.25;;;;;;;;;;5055277;28;20025;-57
2021/05/19 06:38:40;;;;;;;15.80;4.70;;;;;;;;;;5055230;28;20032;-56
2021/05/19 06:41:06;;;;;;;37.42;20.95;;;;;;;;;;5055307;28;20116;-58
2021/05/19 06:43:32;;;;;;;18.33;9.43;;;;;;;;;;5055161;28;20486;-58
2021/05/19 06:45:58;;;;;;;10.02;5.45;;;;;;;;;;5054384;28;20028;-55
2021/05/19 06:48:24;;;;;;;16.35;8.98;;;;;;;;;;5055081;28;20029;-56
2021/05/19 06:50:50;;;;;;;19.58;8.48;;;;;;;;;;5054896;28;20494;-56
2021/05/19 06:53:16;;;;;;;26.27;10.73;;;;;;;;;;5054887;28;20542;-57
2021/05/19 06:55:49;;;;;;;29.67;16.80;;;;;;;;;;5054864;28;20539;-58
2021/05/19 06:58:20;;;;;;;42.97;23.60;;;;;;;;;;5054885;28;20032;-57
2021/05/19 07:00:46;;;;;;;19.50;5.75;;;;;;;;;;5054945;28;20024;-57
2021/05/19 07:03:12;;;;;;;43.20;23.70;;;;;;;;;;5054709;28;20013;-58
2021/05/19 07:05:38;;;;;;;34.78;18.27;;;;;;;;;;5054708;28;20074;-57
2021/05/19 07:08:06;;;;;;;16.10;9.38;;;;;;;;;;5054716;28;20096;-59
2021/05/19 07:10:32;;;;;;;16.30;7.20;;;;;;;;;;5036901;28;20437;-57
2021/05/19 07:12:59;;;;;;;14.35;8.63;;;;;;;;;;5054554;28;20484;-58
2021/05/19 07:15:32;;;;;;;38.20;20.92;;;;;;;;;;5054648;28;20040;-57
2021/05/19 07:18:04;;;;;;;27.55;13.30;;;;;;;;;;5054955;28;20023;-56
2021/05/19 07:20:30;;;;;;;18.63;11.35;;;;;;;;;;5055026;28;20052;-59
2021/05/19 07:22:57;;;;;;;34.97;18.95;;;;;;;;;;5054558;28;20080;-59
2021/05/19 07:25:23;;;;;;;16.75;8.90;;;;;;;;;;5054731;28;20064;-59
2021/05/19 07:27:49;;;;;;;11.90;6.82;;;;;;;;;;5054562;28;20048;-60
2021/05/19 07:30:19;;;;;;;8.98;6.20;;;;;;;;;;5054320;28;20025;-59
2021/05/19 07:32:45;;;;;;;13.23;7.60;;;;;;;;;;5053960;28;20101;-58
2021/05/19 07:35:11;;;;;;;17.85;9.57;;;;;;;;;;5054030;28;20392;-57
2021/05/19 07:37:37;;;;;;;91.82;52.17;;;;;;;;;;5053963;28;20385;-56
2021/05/19 07:40:04;;;;;;;64.25;36.00;;;;;;;;;;5053978;28;20025;-58
2021/05/19 07:42:30;;;;;;;57.13;34.00;;;;;;;;;;5054029;28;20545;-57
2021/05/19 07:44:57;;;;;;;67.43;39.63;;;;;;;;;;5053791;28;20151;-57
2021/05/19 07:47:23;;;;;;;43.25;24.85;;;;;;;;;;5053845;28;20017;-56
2021/05/19 07:49:51;;;;;;;27.27;17.55;;;;;;;;;;5053328;28;20025;-56
2021/05/19 07:52:17;;;;;;;20.83;10.70;;;;;;;;;;5053391;28;20108;-56
2021/05/19 07:54:46;;;;;;;43.53;25.38;;;;;;;;;;5053657;28;20039;-57
2021/05/19 07:57:17;;;;;;;90.18;52.15;;;;;;;;;;5067323;28;20500;-50
2021/05/19 07:59:47;;;;;;;59.72;34.95;;;;;;;;;;5072269;28;20028;-59
2021/05/19 08:02:15;;;;;;;38.90;22.98;;;;;;;;;;5070214;28;20025;-59
2021/05/19 08:04:44;;;;;;;25.02;14.05;;;;;;;;;;5073523;28;20016;-59
2021/05/19 08:07:10;;;;;;;29.08;15.35;;;;;;;;;;5073462;28;20050;-58
2021/05/19 08:09:36;;;;;;;27.33;17.40;;;;;;;;;;5073352;28;20461;-56
2021/05/19 08:12:02;;;;;;;36.58;21.27;;;;;;;;;;5073588;28;20078;-58
2021/05/19 08:14:32;;;;;;;16.60;9.57;;;;;;;;;;5073214;28;20526;-55
2021/05/19 08:16:58;;;;;;;56.88;28.58;;;;;;;;;;5073362;28;20021;-55
2021/05/19 08:19:24;;;;;;;56.72;31.80;;;;;;;;;;5073163;28;20028;-54
2021/05/19 08:21:51;;;;;;;28.20;11.25;;;;;;;;;;5073068;28;20112;-58
2021/05/19 08:24:17;;;;;;;39.05;20.23;;;;;;;;;;5073245;28;20145;-61
2021/05/19 08:26:43;;;;;;;30.23;17.85;;;;;;;;;;5073148;28;20017;-58
2021/05/19 08:29:09;;;;;;;34.53;19.38;;;;;;;;;;5072886;28;20489;-55
2021/05/19 08:31:36;;;;;;;27.60;16.83;;;;;;;;;;5072647;28;20016;-56
2021/05/19 08:34:02;;;;;;;97.93;52.78;;;;;;;;;;5072593;28;20041;-54
2021/05/19 08:36:28;;;;;;;42.25;21.33;;;;;;;;;;5072687;28;20020;-56
2021/05/19 08:38:54;;;;;;;39.80;20.52;;;;;;;;;;5072775;28;20029;-57
2021/05/19 08:41:21;;;;;;;45.30;24.13;;;;;;;;;;5072729;28;20019;-55
2021/05/19 08:43:47;;;;;;;16.08;9.25;;;;;;;;;;5070037;28;20065;-53
2021/05/19 08:46:13;;;;;;;48.90;28.42;;;;;;;;;;5054345;28;20123;-52
2021/05/19 08:48:41;;;;;;;14.57;9.95;;;;;;;;;;5072734;28;20029;-52
2021/05/19 08:51:07;;;;;;;80.05;43.60;;;;;;;;;;5072706;28;20110;-50
2021/05/19 08:53:33;;;;;;;49.70;25.33;;;;;;;;;;5073223;28;20041;-49
2021/05/19 08:56:05;;;;;;;57.72;29.65;;;;;;;;;;5072923;28;20027;-50
2021/05/19 08:58:31;;;;;;;52.65;26.27;;;;;;;;;;5073107;28;20024;-55
2021/05/19 09:00:57;;;;;;;48.72;24.13;;;;;;;;;;5073018;28;20033;-54
2021/05/19 09:03:23;;;;;;;86.53;43.53;;;;;;;;;;5072897;28;20028;-53
2021/05/19 09:05:49;;;;;;;45.92;20.75;;;;;;;;;;5072843;28;20074;-55
2021/05/19 09:08:16;;;;;;;68.05;23.20;;;;;;;;;;5072928;28;20353;-55
2021/05/19 09:10:43;;;;;;;71.95;34.53;;;;;;;;;;5076167;28;20016;-53
2021/05/19 09:13:28;;;;;;;46.67;21.00;;;;;;;;;;5076772;28;20025;-57
2021/05/19 09:15:54;;;;;;;53.75;24.42;;;;;;;;;;5076786;28;20035;-53
2021/05/19 09:18:20;;;;;;;110.43;50.85;;;;;;;;;;5058338;28;20033;-55
2021/05/19 09:20:48;;;;;;;126.88;61.03;;;;;;;;;;5076560;28;20028;-55
2021/05/19 09:23:21;;;;;;;129.20;69.85;;;;;;;;;;5058295;28;20381;-54
2021/05/19 09:26:07;;;;;;;99.30;53.67;;;;;;;;;;5076708;28;20381;-54
2021/05/19 09:28:33;;;;;;;110.93;59.97;;;;;;;;;;5076623;28;20021;-54
2021/05/19 09:30:59;;;;;;;114.00;61.78;;;;;;;;;;5076462;28;20052;-55
2021/05/19 09:33:27;;;;;;;26.02;15.32;;;;;;;;;;5076494;28;20081;-52
2021/05/19 09:36:10;;;;;;;53.50;28.95;;;;;;;;;;5076402;28;20059;-52
2021/05/19 09:38:36;;;;;;;83.10;45.58;;;;;;;;;;5076489;28;20051;-53
2021/05/19 09:41:19;;;;;;;83.05;43.58;;;;;;;;;;5076330;28;20032;-54
2021/05/19 09:43:46;;;;;;;81.53;44.00;;;;;;;;;;5076043;28;20029;-54
2021/05/19 09:46:18;;;;;;;42.25;23.80;;;;;;;;;;5076415;28;20021;-55
2021/05/19 09:48:45;;;;;;;75.28;43.75;;;;;;;;;;5076167;28;20077;-54
2021/05/19 09:51:24;;;;;;;44.28;24.67;;;;;;;;;;5075801;28;20123;-54
2021/05/19 09:53:50;;;;;;;80.85;46.30;;;;;;;;;;5076081;28;20039;-55
2021/05/19 09:56:16;;;;;;;12.63;8.35;;;;;;;;;;5075967;28;20504;-55
2021/05/19 09:58:44;;;;;;;57.05;31.55;;;;;;;;;;5076041;28;20024;-54
2021/05/19 10:01:10;;;;;;;25.08;13.98;;;;;;;;;;5075889;28;20021;-55
2021/05/19 10:03:37;;;;;;;45.83;23.63;;;;;;;;;;5075857;28;20032;-53
2021/05/19 10:08:33;;;;;;;26.35;14.38;;;;;;;;;;5075970;28;20027;-56
2021/05/19 10:11:04;;;;;;;37.90;21.42;;;;;;;;;;5075743;28;20023;-54
2021/05/19 10:13:31;;;;;;;139.43;83.13;;;;;;;;;;5057460;28;20392;-55
2021/05/19 10:15:58;;;;;;;169.60;87.95;;;;;;;;;;5075656;28;20043;-54
2021/05/19 10:18:26;;;;;;;44.67;26.92;;;;;;;;;;5075524;28;20040;-55
2021/05/19 10:20:55;;;;;;;40.72;22.20;;;;;;;;;;5074875;28;20021;-54
2021/05/19 10:23:25;;;;;;;46.58;19.65;;;;;;;;;;5075735;28;20025;-54
2021/05/19 10:25:51;;;;;;;56.67;27.38;;;;;;;;;;5076118;28;20020;-53
2021/05/19 10:28:18;;;;;;;19.45;11.27;;;;;;;;;;5075756;28;20480;-53
2021/05/19 10:30:46;;;;;;;25.33;14.18;;;;;;;;;;5057153;28;20029;-54
2021/05/19 10:33:27;;;;;;;39.63;21.33;;;;;;;;;;5075448;28;20032;-54
2021/05/19 10:35:54;;;;;;;45.55;24.15;;;;;;;;;;5075515;28;20029;-54
2021/05/19 10:38:27;;;;;;;32.17;17.23;;;;;;;;;;5075443;28;20476;-53
2021/05/19 10:40:54;;;;;;;47.13;28.48;;;;;;;;;;5075009;28;20112;-54
2021/05/19 10:43:20;;;;;;;26.02;15.90;;;;;;;;;;5075342;28;20020;-54
2021/05/19 10:45:57;;;;;;;37.60;24.88;;;;;;;;;;5075181;28;20091;-51
2021/05/19 10:48:27;;;;;;;53.97;32.60;;;;;;;;;;5075183;28;20099;-52
2021/05/19 10:50:59;;;;;;;68.90;42.20;;;;;;;;;;5074654;28;20443;-54
2021/05/19 10:59:13;;;;;;;38.97;24.50;;;;;;;;;;5074822;28;20124;-52
2021/05/19 11:01:39;;;;;;;22.92;14.85;;;;;;;;;;5074995;28;20035;-53
2021/05/19 11:04:28;;;;;;;36.47;21.58;;;;;;;;;;5074825;28;20021;-51
2021/05/19 11:06:57;;;;;;;16.80;12.38;;;;;;;;;;5001579;28;20034;-52
2021/05/19 11:09:50;;;;;;;38.13;22.35;;;;;;;;;;5003495;28;20038;-54
2021/05/19 11:12:26;;;;;;;23.25;13.07;;;;;;;;;;5000170;28;20142;-54
2021/05/19 11:15:12;;;;;;;121.28;76.40;;;;;;;;;;5000014;28;20030;-54
2021/05/19 11:20:08;;;;;;;12.98;8.88;;;;;;;;;;5001007;28;20079;-55
2021/05/19 11:22:34;;;;;;;15.35;9.07;;;;;;;;;;5002372;28;20128;-56
2021/05/19 11:25:01;;;;;;;14.65;8.13;;;;;;;;;;5002905;28;20031;-57
2021/05/19 11:27:29;;;;;;;14.85;9.00;;;;;;;;;;5001367;28;20144;-58
2021/05/19 11:29:56;;;;;;;10.02;7.28;;;;;;;;;;5012546;28;20583;-57
2021/05/19 11:32:26;;;;;;;9.93;7.18;;;;;;;;;;4995828;28;20116;-58
2021/05/19 11:34:53;;;;;;;9.82;6.55;;;;;;;;;;5003084;28;20065;-59
2021/05/19 11:37:22;;;;;;;16.48;9.70;;;;;;;;;;5001385;28;20037;-56
2021/05/19 11:39:57;;;;;;;15.18;8.18;;;;;;;;;;5001214;28;20495;-60
2021/05/19 11:42:29;;;;;;;10.48;6.30;;;;;;;;;;5000818;28;20029;-60
2021/05/19 11:44:58;;;;;;;15.68;10.07;;;;;;;;;;5064008;28;20036;-58
2021/05/19 11:47:24;;;;;;;26.95;16.10;;;;;;;;;;5073487;28;20457;-60
2021/05/19 11:50:08;;;;;;;20.02;10.38;;;;;;;;;;5073278;28;20027;-60
2021/05/19 11:53:00;;;;;;;26.88;14.70;;;;;;;;;;5072196;28;20064;-59
2021/05/19 11:55:32;;;;;;;24.02;15.57;;;;;;;;;;5074122;28;20033;-58
2021/05/19 11:58:09;;;;;;;36.60;21.50;;;;;;;;;;5074917;28;20044;-60
2021/05/19 12:00:40;;;;;;;34.08;19.60;;;;;;;;;;5072373;28;20026;-58
2021/05/19 12:03:09;;;;;;;30.42;18.73;;;;;;;;;;5073326;28;20100;-61
2021/05/19 12:05:52;;;;;;;56.22;33.45;;;;;;;;;;5073405;28;20013;-55
2021/05/19 12:08:20;;;;;;;11.02;7.95;;;;;;;;;;5071834;28;20025;-60
2021/05/19 12:10:46;;;;;;;11.23;7.00;;;;;;;;;;5072934;28;20020;-58
2021/05/19 12:13:13;;;;;;;16.48;10.07;;;;;;;;;;5072955;28;20108;-57
2021/05/19 12:15:40;;;;;;;28.35;16.60;;;;;;;;;;5073051;28;20016;-60
2021/05/19 12:18:07;;;;;;;17.70;11.52;;;;;;;;;;5072991;28;20088;-58
2021/05/19 12:20:37;;;;;;;40.50;25.45;;;;;;;;;;5072995;28;20074;-54
2021/05/19 12:23:05;;;;;;;35.00;20.15;;;;;;;;;;5072748;28;20037;-60
2021/05/19 12:25:32;;;;;;;13.07;7.43;;;;;;;;;;5073056;28;20035;-58
2021/05/19 12:28:03;;;;;;;13.18;7.03;;;;;;;;;;5072878;28;20043;-59
2021/05/19 12:30:32;;;;;;;15.00;9.75;;;;;;;;;;5069761;28;20107;-56
2021/05/19 12:33:06;;;;;;;42.45;27.38;;;;;;;;;;5071734;28;20050;-59
2021/05/19 12:35:33;;;;;;;37.67;22.98;;;;;;;;;;5071124;28;20469;-58
2021/05/19 12:38:01;;;;;;;41.55;26.42;;;;;;;;;;5072112;28;20029;-59
2021/05/19 12:40:31;;;;;;;28.77;18.70;;;;;;;;;;5069994;28;20029;-56
2021/05/19 12:43:01;;;;;;;16.50;9.98;;;;;;;;;;5073150;28;20107;-54
2021/05/19 12:45:50;;;;;;;15.65;9.45;;;;;;;;;;5072522;28;20017;-55
2021/05/19 12:48:17;;;;;;;14.40;9.52;;;;;;;;;;5073344;28;20043;-56
2021/05/19 12:50:46;;;;;;;26.60;12.77;;;;;;;;;;5072966;28;20048;-56
2021/05/19 12:53:51;;;;;;;38.67;18.58;;;;;;;;;;5073116;28;20021;-53
2021/05/19 12:56:24;;;;;;;21.95;12.82;;;;;;;;;;4992298;28;20034;-57
2021/05/19 12:59:01;;;;;;;14.35;9.55;;;;;;;;;;4992067;28;20038;-58
2021/05/19 13:01:29;;;;;;;30.42;17.75;;;;;;;;;;4991727;28;20043;-56
2021/05/19 13:03:55;;;;;;;21.30;13.18;;;;;;;;;;4991788;28;20026;-52
2021/05/19 13:06:28;;;;;;;18.45;11.25;;;;;;;;;;4991581;28;20027;-55
2021/05/19 13:09:01;;;;;;;45.22;26.20;;;;;;;;;;4991266;28;20129;-56
2021/05/19 13:11:29;;;;;;;10.57;5.78;;;;;;;;;;4991403;28;20064;-56
2021/05/19 13:13:55;;;;;;;31.88;17.70;;;;;;;;;;4991471;28;20073;-56
2021/05/19 13:16:22;;;;;;;16.33;10.45;;;;;;;;;;4991616;28;20101;-55
2021/05/19 13:18:59;;;;;;;14.07;9.30;;;;;;;;;;4991641;28;20034;-57
2021/05/19 13:21:47;;;;;;;23.30;13.15;;;;;;;;;;4991220;28;20042;-57
2021/05/19 13:24:14;;;;;;;53.20;33.60;;;;;;;;;;4972041;28;20066;-57
2021/05/19 13:26:43;;;;;;;27.08;17.48;;;;;;;;;;5001365;28;20040;-57
2021/05/19 13:29:13;;;;;;;14.48;9.05;;;;;;;;;;5052591;28;20029;-56
2021/05/19 13:36:58;;;;;;;16.98;8.48;;;;;;;;;;5011085;28;20449;-56
2021/05/19 13:39:25;;;;;;;13.02;9.32;;;;;;;;;;5011006;28;20038;-57
2021/05/19 13:41:56;;;;;;;18.33;10.93;;;;;;;;;;5010941;28;20026;-57
2021/05/19 13:44:25;;;;;;;15.38;10.63;;;;;;;;;;5010957;28;20030;-56
2021/05/19 13:46:52;;;;;;;19.50;12.45;;;;;;;;;;5011072;28;20037;-57
2021/05/19 13:49:31;;;;;;;24.13;14.98;;;;;;;;;;5010800;28;20030;-56
2021/05/19 13:52:04;;;;;;;19.27;13.45;;;;;;;;;;5014090;28;20401;-54
2021/05/19 13:54:31;;;;;;;20.75;14.20;;;;;;;;;;5030274;28;20041;-56
2021/05/19 13:56:57;;;;;;;30.95;19.38;;;;;;;;;;5033554;28;20117;-55
2021/05/19 13:59:23;;;;;;;25.50;16.70;;;;;;;;;;5033989;28;20520;-56
2021/05/19 14:01:50;;;;;;;24.92;17.63;;;;;;;;;;5033890;28;20036;-56
2021/05/19 14:04:17;;;;;;;18.20;13.32;;;;;;;;;;5021033;28;20044;-54
2021/05/19 14:06:43;;;;;;;26.52;17.33;;;;;;;;;;5006380;28;20021;-57
2021/05/19 14:09:09;;;;;;;15.95;11.13;;;;;;;;;;5008028;28;20038;-55
2021/05/19 14:11:42;;;;;;;24.55;17.95;;;;;;;;;;5028124;28;21096;-51
2021/05/19 14:27:26;;;;;;;28.65;15.48;;;;;;;;;;5048479;28;20071;-51
2021/05/19 14:29:52;;;;;;;20.60;11.15;;;;;;;;;;5048699;28;21634;-55
2021/05/19 14:32:19;;;;;;;26.83;16.27;;;;;;;;;;5048421;28;20037;-55
2021/05/19 14:34:48;;;;;;;32.08;21.70;;;;;;;;;;5048458;28;20871;-53
2021/05/19 15:01:31;;;;;;;23.42;13.88;;;;;;;;;;4940727;28;20136;-53
2021/05/19 15:03:57;;;;;;;31.15;17.55;;;;;;;;;;4940829;28;20038;-51
2021/05/19 15:06:23;;;;;;;21.23;12.18;;;;;;;;;;4939990;28;20045;-50
2021/05/19 15:08:52;;;;;;;11.75;7.15;;;;;;;;;;4940427;28;20045;-51
2021/05/19 15:11:18;;;;;;;5.13;3.78;;;;;;;;;;4945418;28;20019;-61
2021/05/19 15:13:44;;;;;;;8.10;5.32;;;;;;;;;;4973768;28;20047;-63
2021/05/19 15:16:10;;;;;;;11.75;5.53;;;;;;;;;;4973821;28;20118;-64
2021/05/19 15:18:36;;;;;;;11.55;5.57;;;;;;;;;;5020564;28;20488;-61
2021/05/19 15:21:02;;;;;;;18.45;9.25;;;;;;;;;;5074134;28;20028;-60
2021/05/19 15:23:28;;;;;;;15.73;8.75;;;;;;;;;;5074187;28;20365;-58
2021/05/19 15:25:55;;;;;;;22.25;13.05;;;;;;;;;;5074022;28;20136;-62
2021/05/19 15:28:22;;;;;;;40.25;22.42;;;;;;;;;;5074172;28;20017;-51